createdAt,value
2018-03-28T00:00:51.222Z,8.30
2018-03-28T00:03:18.734Z,7.70
2018-03-28T00:05:46.243Z,8.63
2018-03-28T00:08:13.800Z,7.03
2018-03-28T00:10:42.073Z,7.07
2018-03-28T00:13:10.350Z,8.37
2018-03-28T00:15:38.647Z,7.53
2018-03-28T00:18:06.221Z,8.30
2018-03-28T00:20:33.732Z,8.10
2018-03-28T00:23:01.335Z,7.80
2018-03-28T00:25:29.613Z,7.00
2018-03-28T00:27:57.886Z,7.17
2018-03-28T00:30:26.183Z,6.63
2018-03-28T00:32:53.746Z,6.13
2018-03-28T00:35:21.303Z,6.70
2018-03-28T00:37:49.577Z,6.37
2018-03-28T00:40:17.857Z,5.77
2018-03-28T00:42:46.166Z,6.87
2018-03-28T00:45:13.714Z,6.43
2018-03-28T00:47:42.530Z,6.40
2018-03-28T00:50:10.070Z,6.10
2018-03-28T00:52:37.586Z,6.10
2018-03-28T00:55:05.093Z,5.87
2018-03-28T00:57:33.373Z,6.30
2018-03-28T01:00:01.651Z,7.30
2018-03-28T01:02:29.932Z,5.87
2018-03-28T01:04:58.205Z,5.50
2018-03-28T01:07:26.475Z,5.97
2018-03-28T01:09:53.982Z,4.93
2018-03-28T01:12:21.501Z,5.70
2018-03-28T01:14:49.781Z,5.13
2018-03-28T01:17:17.302Z,5.77
2018-03-28T01:19:44.840Z,6.20
2018-03-28T01:22:12.411Z,5.13
2018-03-28T01:24:39.929Z,5.37
2018-03-28T01:27:07.528Z,5.00
2018-03-28T01:29:35.047Z,5.23
2018-03-28T01:32:02.658Z,5.30
2018-03-28T01:34:31.723Z,5.13
2018-03-28T01:36:59.317Z,5.50
2018-03-28T01:39:26.824Z,5.20
2018-03-28T01:41:54.358Z,6.40
2018-03-28T01:44:21.906Z,4.93
2018-03-28T01:46:49.425Z,4.87
2018-03-28T01:49:16.987Z,4.47
2018-03-28T01:51:44.496Z,4.90
2018-03-28T01:54:12.874Z,5.23
2018-03-28T01:56:41.148Z,4.80
2018-03-28T01:59:09.422Z,4.80
2018-03-28T02:01:37.003Z,5.03
2018-03-28T02:04:05.280Z,4.87
2018-03-28T02:06:33.669Z,4.67
2018-03-28T02:09:01.964Z,4.33
2018-03-28T02:11:29.470Z,4.37
2018-03-28T02:13:56.973Z,4.50
2018-03-28T02:16:25.254Z,4.20
2018-03-28T02:18:53.521Z,4.33
2018-03-28T02:21:21.827Z,4.63
2018-03-28T02:23:49.384Z,5.83
2018-03-28T02:26:16.889Z,3.70
2018-03-28T02:28:44.403Z,4.37
2018-03-28T02:31:12.677Z,5.60
2018-03-28T02:33:40.962Z,4.30
2018-03-28T02:36:09.250Z,4.10
2018-03-28T02:38:36.757Z,4.50
2018-03-28T02:41:04.267Z,3.87
2018-03-28T02:43:32.549Z,3.97
2018-03-28T02:46:00.823Z,3.70
2018-03-28T02:48:29.104Z,3.70
2018-03-28T02:50:57.395Z,3.83
2018-03-28T02:53:25.677Z,3.43
2018-03-28T02:55:53.200Z,3.87
2018-03-28T02:58:20.737Z,3.37
2018-03-28T03:00:48.248Z,3.27
2018-03-28T03:03:15.837Z,3.33
2018-03-28T03:05:43.347Z,3.50
2018-03-28T03:08:10.871Z,3.70
2018-03-28T03:10:39.711Z,3.50
2018-03-28T03:13:07.322Z,3.87
2018-03-28T03:15:34.836Z,3.63
2018-03-28T03:18:02.442Z,3.97
2018-03-28T03:20:30.714Z,3.70
2018-03-28T03:22:59.010Z,3.73
2018-03-28T03:25:27.619Z,3.47
2018-03-28T03:27:56.053Z,3.57
2018-03-28T03:30:23.644Z,4.20
2018-03-28T03:32:51.908Z,3.63
2018-03-28T03:35:20.190Z,3.17
2018-03-28T03:37:48.489Z,3.40
2018-03-28T03:40:16.053Z,3.03
2018-03-28T03:42:43.559Z,3.30
2018-03-28T03:45:11.077Z,7.33
2018-03-28T03:47:39.352Z,6.43
2018-03-28T03:50:07.624Z,5.77
2018-03-28T03:52:36.780Z,4.87
2018-03-28T03:55:04.283Z,4.50
2018-03-28T03:57:32.575Z,5.43
2018-03-28T04:00:00.853Z,6.47
2018-03-28T04:02:29.133Z,8.70
2018-03-28T04:04:57.422Z,3.97
2018-03-28T04:07:24.957Z,6.07
2018-03-28T04:09:53.238Z,4.33
2018-03-28T04:12:20.745Z,4.80
2018-03-28T04:14:48.293Z,4.37
2018-03-28T04:17:16.570Z,7.73
2018-03-28T04:19:44.834Z,8.27
2018-03-28T04:22:12.421Z,6.57
2018-03-28T04:24:40.702Z,4.37
2018-03-28T04:27:08.220Z,5.37
2018-03-28T04:29:35.736Z,3.73
2018-03-28T04:32:03.293Z,5.07
2018-03-28T04:34:30.817Z,5.63
2018-03-28T04:36:58.416Z,6.73
2018-03-28T04:39:25.939Z,5.63
2018-03-28T04:41:53.483Z,7.83
2018-03-28T04:44:20.995Z,5.57
2018-03-28T04:46:49.284Z,4.37
2018-03-28T04:49:18.352Z,3.60
2018-03-28T04:51:45.973Z,4.60
2018-03-28T04:54:13.519Z,4.53
2018-03-28T04:56:41.805Z,3.80
2018-03-28T04:59:09.361Z,6.30
2018-03-28T05:01:38.155Z,3.73
2018-03-28T05:04:06.958Z,4.27
2018-03-28T05:06:34.445Z,3.90
2018-03-28T05:09:01.970Z,5.33
2018-03-28T05:11:30.257Z,4.30
2018-03-28T05:13:57.774Z,4.87
2018-03-28T05:16:25.380Z,3.07
2018-03-28T05:18:53.648Z,4.23
2018-03-28T05:21:21.932Z,4.23
2018-03-28T05:23:50.206Z,5.97
2018-03-28T05:26:18.502Z,2.70
2018-03-28T05:28:46.777Z,5.27
2018-03-28T05:31:15.071Z,4.60
2018-03-28T05:33:42.582Z,3.87
2018-03-28T05:36:10.093Z,3.23
2018-03-28T05:38:38.364Z,3.20
2018-03-28T05:41:06.650Z,3.90
2018-03-28T05:43:34.938Z,4.03
2018-03-28T05:46:02.454Z,4.17
2018-03-28T05:48:29.958Z,3.63
2018-03-28T05:50:58.341Z,8.33
2018-03-28T05:53:26.614Z,3.67
2018-03-28T05:55:54.954Z,3.70
2018-03-28T05:58:22.465Z,2.80
2018-03-28T06:00:50.748Z,3.60
2018-03-28T06:03:19.022Z,3.80
2018-03-28T06:05:47.293Z,4.57
2018-03-28T06:08:15.593Z,3.40
2018-03-28T06:10:43.107Z,3.40
2018-03-28T06:13:10.618Z,3.30
2018-03-28T06:15:38.178Z,2.63
2018-03-28T06:18:06.563Z,2.80
2018-03-28T06:20:34.127Z,3.00
2018-03-28T06:23:02.406Z,4.97
2018-03-28T06:25:30.801Z,4.37
2018-03-28T06:27:58.322Z,2.47
2018-03-28T06:30:25.866Z,5.50
2018-03-28T06:32:53.494Z,5.47
2018-03-28T06:35:21.050Z,6.10
2018-03-28T06:37:48.558Z,5.03
2018-03-28T06:40:16.174Z,5.63
2018-03-28T06:42:44.463Z,4.20
2018-03-28T06:45:11.971Z,5.40
2018-03-28T06:47:39.599Z,4.83
2018-03-28T06:50:07.165Z,4.60
2018-03-28T06:52:34.685Z,4.77
2018-03-28T06:55:02.278Z,4.53
2018-03-28T06:57:29.800Z,4.67
2018-03-28T06:59:57.341Z,3.60
2018-03-28T07:02:24.869Z,6.13
2018-03-28T07:04:52.438Z,5.93
2018-03-28T07:07:19.951Z,7.57
2018-03-28T07:09:47.563Z,9.10
2018-03-28T07:12:15.072Z,7.07
2018-03-28T07:14:42.591Z,5.07
2018-03-28T07:17:10.152Z,8.77
2018-03-28T07:19:38.542Z,11.00
2018-03-28T07:22:06.117Z,9.00
2018-03-28T07:24:33.626Z,7.13
2018-03-28T07:27:01.238Z,8.17
2018-03-28T07:29:28.798Z,5.70
2018-03-28T07:31:56.289Z,7.33
2018-03-28T07:34:23.792Z,7.60
2018-03-28T07:36:51.385Z,7.57
2018-03-28T07:39:20.110Z,6.80
2018-03-28T07:41:47.627Z,6.60
2018-03-28T07:44:15.909Z,8.27
2018-03-28T07:46:44.208Z,9.77
2018-03-28T07:49:11.725Z,8.90
2018-03-28T07:51:39.294Z,7.70
2018-03-28T07:54:07.699Z,9.17
2018-03-28T07:56:36.075Z,6.40
2018-03-28T07:59:04.477Z,10.50
2018-03-28T08:01:32.872Z,9.97
2018-03-28T08:04:00.426Z,8.60
2018-03-28T08:06:28.702Z,7.97
2018-03-28T08:08:57.004Z,8.17
2018-03-28T08:11:24.539Z,7.83
2018-03-28T08:13:52.852Z,8.47
2018-03-28T08:16:20.366Z,10.00
2018-03-28T08:18:48.168Z,11.00
2018-03-28T08:21:15.767Z,8.93
2018-03-28T08:23:43.249Z,8.17
2018-03-28T08:26:10.804Z,8.73
2018-03-28T08:28:38.351Z,8.03
2018-03-28T08:31:06.107Z,9.00
2018-03-28T08:33:33.631Z,8.83
2018-03-28T08:36:01.931Z,8.67
2018-03-28T08:38:30.200Z,9.30
2018-03-28T08:40:58.484Z,9.20
2018-03-28T08:43:26.779Z,9.37
2018-03-28T08:45:54.947Z,12.37
2018-03-28T08:48:23.230Z,9.03
2018-03-28T08:50:51.506Z,9.30
2018-03-28T08:53:19.789Z,9.87
2018-03-28T08:55:48.897Z,9.13
2018-03-28T08:58:16.407Z,8.63
2018-03-28T09:00:43.923Z,8.97
2018-03-28T09:03:12.389Z,11.07
2018-03-28T09:05:40.682Z,8.53
2018-03-28T09:08:08.969Z,10.70
2018-03-28T09:10:36.529Z,13.97
2018-03-28T09:13:04.811Z,14.10
2018-03-28T09:15:33.090Z,13.50
2018-03-28T09:18:01.480Z,11.30
2018-03-28T09:20:29.001Z,14.13
2018-03-28T09:22:56.610Z,11.90
2018-03-28T09:25:24.124Z,10.63
2018-03-28T09:27:51.647Z,10.77
2018-03-28T09:30:19.153Z,10.60
2018-03-28T09:32:46.668Z,8.93
2018-03-28T09:35:14.212Z,9.57
2018-03-28T09:37:42.604Z,10.20
2018-03-28T09:40:10.985Z,9.60
2018-03-28T09:42:39.269Z,9.83
2018-03-28T09:45:06.846Z,10.50
2018-03-28T09:47:34.369Z,11.33
2018-03-28T09:50:01.957Z,10.13
2018-03-28T09:52:30.234Z,10.63
2018-03-28T09:54:58.510Z,11.00
2018-03-28T09:57:26.796Z,11.17
2018-03-28T09:59:55.079Z,11.53
2018-03-28T10:02:30.983Z,11.60
2018-03-28T10:04:59.441Z,10.97
2018-03-28T10:07:26.958Z,9.93
2018-03-28T10:09:54.983Z,12.67
2018-03-28T10:12:22.495Z,9.37
2018-03-28T10:14:50.815Z,11.43
2018-03-28T10:17:18.322Z,10.60
2018-03-28T10:19:45.926Z,8.97
2018-03-28T10:22:14.212Z,13.17
2018-03-28T10:24:41.746Z,16.07
2018-03-28T10:27:09.342Z,13.77
2018-03-28T10:29:39.244Z,12.47
2018-03-28T10:32:07.553Z,10.47
2018-03-28T10:34:35.068Z,10.10
2018-03-28T10:37:02.580Z,14.80
2018-03-28T10:39:30.086Z,12.40
2018-03-28T10:41:57.694Z,11.13
2018-03-28T10:44:26.068Z,9.90
2018-03-28T10:46:55.076Z,11.07
2018-03-28T10:49:23.346Z,10.90
2018-03-28T10:51:51.615Z,11.07
2018-03-28T10:54:19.137Z,12.67
2018-03-28T10:56:46.664Z,11.83
2018-03-28T10:59:14.180Z,9.77
2018-03-28T11:01:41.691Z,10.40
2018-03-28T11:04:09.252Z,9.73
2018-03-28T11:06:37.628Z,9.43
2018-03-28T11:09:05.896Z,8.47
2018-03-28T11:11:34.176Z,12.07
2018-03-28T11:14:02.459Z,9.53
2018-03-28T11:16:30.757Z,9.73
2018-03-28T11:18:59.445Z,9.47
2018-03-28T11:21:27.712Z,11.23
2018-03-28T11:23:56.001Z,9.60
2018-03-28T11:26:24.283Z,8.33
2018-03-28T11:28:52.557Z,7.93
2018-03-28T11:31:20.859Z,11.00
2018-03-28T11:33:48.419Z,11.20
2018-03-28T11:36:15.936Z,9.53
2018-03-28T11:38:43.455Z,11.70
2018-03-28T11:41:11.011Z,15.87
2018-03-28T11:43:38.577Z,17.53
2018-03-28T11:46:06.369Z,18.40
2018-03-28T11:48:33.911Z,20.47
2018-03-28T11:51:01.427Z,15.90
2018-03-28T11:53:28.946Z,15.63
2018-03-28T11:55:56.466Z,16.40
2018-03-28T11:58:24.836Z,17.60
2018-03-28T12:00:52.343Z,16.33
2018-03-28T12:03:19.899Z,14.47
2018-03-28T12:05:48.182Z,19.27
2018-03-28T12:08:16.454Z,19.50
2018-03-28T12:10:44.769Z,13.87
2018-03-28T12:13:12.285Z,11.53
2018-03-28T12:15:39.796Z,10.73
2018-03-28T12:18:07.340Z,10.80
2018-03-28T12:20:34.855Z,10.57
2018-03-28T12:23:02.553Z,10.13
2018-03-28T12:25:30.832Z,10.03
2018-03-28T12:27:59.101Z,12.13
2018-03-28T12:30:26.713Z,13.77
2018-03-28T12:32:54.258Z,11.70
2018-03-28T12:35:21.864Z,7.37
2018-03-28T12:37:49.339Z,9.97
2018-03-28T12:40:16.841Z,8.63
2018-03-28T12:42:45.123Z,7.47
2018-03-28T12:45:13.397Z,11.33
2018-03-28T12:47:41.678Z,7.50
2018-03-28T12:50:09.956Z,7.27
2018-03-28T12:52:38.236Z,7.47
2018-03-28T12:55:06.554Z,6.63
2018-03-28T12:57:34.120Z,6.90
2018-03-28T13:00:01.646Z,9.10
2018-03-28T13:02:29.933Z,7.47
2018-03-28T13:04:58.329Z,7.47
2018-03-28T13:07:25.886Z,10.67
2018-03-28T13:09:53.393Z,6.33
2018-03-28T13:12:20.916Z,8.63
2018-03-28T13:14:48.472Z,7.53
2018-03-28T13:17:16.860Z,6.60
2018-03-28T13:19:45.133Z,7.27
2018-03-28T13:22:14.266Z,5.90
2018-03-28T13:24:41.790Z,7.80
2018-03-28T13:27:10.063Z,6.53
2018-03-28T13:29:37.661Z,7.03
2018-03-28T13:32:05.523Z,5.20
2018-03-28T13:34:33.085Z,5.03
2018-03-28T13:37:00.706Z,6.10
2018-03-28T13:39:28.212Z,7.87
2018-03-28T13:41:55.778Z,4.63
2018-03-28T13:44:24.052Z,4.83
2018-03-28T13:46:52.335Z,4.97
2018-03-28T13:49:20.604Z,8.07
2018-03-28T13:51:48.925Z,5.57
2018-03-28T13:54:16.464Z,4.60
2018-03-28T13:56:44.742Z,6.67
2018-03-28T13:59:13.124Z,4.60
2018-03-28T14:01:41.508Z,4.90
2018-03-28T14:04:09.892Z,7.47
2018-03-28T14:06:38.603Z,6.43
2018-03-28T14:09:06.400Z,5.23
2018-03-28T14:11:34.027Z,6.00
2018-03-28T14:14:01.538Z,7.53
2018-03-28T14:16:29.038Z,5.13
2018-03-28T14:18:58.156Z,5.97
2018-03-28T14:21:25.673Z,5.43
2018-03-28T14:23:53.189Z,5.87
2018-03-28T14:26:20.705Z,4.43
2018-03-28T14:28:48.210Z,6.73
2018-03-28T14:31:15.725Z,6.80
2018-03-28T14:33:43.233Z,5.23
2018-03-28T14:36:10.744Z,6.03
2018-03-28T14:38:38.274Z,5.20
2018-03-28T14:41:05.789Z,4.83
2018-03-28T14:43:33.303Z,7.07
2018-03-28T14:46:00.808Z,8.27
2018-03-28T14:48:28.316Z,7.13
2018-03-28T14:50:55.830Z,5.27
2018-03-28T14:53:23.340Z,6.23
2018-03-28T14:55:50.848Z,6.43
2018-03-28T14:58:18.371Z,5.37
2018-03-28T15:00:45.878Z,7.03
2018-03-28T15:03:13.469Z,6.57
2018-03-28T15:05:41.752Z,5.13
2018-03-28T15:08:10.034Z,5.23
2018-03-28T15:10:39.018Z,5.70
2018-03-28T15:13:06.536Z,4.77
2018-03-28T15:15:34.047Z,4.53
2018-03-28T15:18:01.620Z,4.43
2018-03-28T15:20:30.897Z,5.63
2018-03-28T15:22:58.493Z,7.40
2018-03-28T15:25:26.761Z,5.30
2018-03-28T15:27:55.065Z,7.67
2018-03-28T15:30:22.945Z,5.83
2018-03-28T15:32:50.467Z,6.33
2018-03-28T15:35:17.980Z,5.77
2018-03-28T15:37:45.484Z,6.83
2018-03-28T15:40:13.012Z,6.27
2018-03-28T15:42:40.520Z,5.47
2018-03-28T15:45:08.041Z,4.20
2018-03-28T15:47:35.584Z,10.80
2018-03-28T15:50:03.138Z,7.30
2018-03-28T15:52:31.523Z,4.37
2018-03-28T15:54:59.804Z,2.30
2018-03-28T15:57:28.080Z,7.23
2018-03-28T15:59:56.817Z,7.80
2018-03-28T16:02:24.438Z,3.47
2018-03-28T16:04:52.850Z,4.80
2018-03-28T16:07:20.368Z,4.83
2018-03-28T16:09:47.952Z,3.90
2018-03-28T16:12:16.225Z,4.10
2018-03-28T16:14:44.508Z,4.97
2018-03-28T16:17:12.790Z,4.40
2018-03-28T16:19:41.057Z,3.53
2018-03-28T16:22:09.526Z,5.43
2018-03-28T16:24:37.069Z,4.17
2018-03-28T16:27:04.623Z,7.20
2018-03-28T16:29:32.167Z,4.87
2018-03-28T16:31:59.715Z,5.37
2018-03-28T16:34:27.241Z,3.63
2018-03-28T16:36:54.837Z,4.07
2018-03-28T16:39:23.284Z,5.50
2018-03-28T16:41:50.807Z,7.23
2018-03-28T16:44:18.367Z,5.83
2018-03-28T16:46:45.876Z,4.50
2018-03-28T16:49:13.816Z,5.97
2018-03-28T16:51:41.347Z,6.20
2018-03-28T16:54:10.476Z,3.77
2018-03-28T16:56:38.014Z,4.57
2018-03-28T16:59:06.395Z,3.57
2018-03-28T17:01:34.677Z,3.03
2018-03-28T17:04:02.198Z,4.00
2018-03-28T17:06:29.714Z,5.43
2018-03-28T17:08:57.277Z,5.93
2018-03-28T17:11:24.836Z,3.03
2018-03-28T17:13:53.103Z,3.97
2018-03-28T17:16:21.373Z,3.77
2018-03-28T17:18:49.657Z,4.33
2018-03-28T17:21:17.234Z,6.60
2018-03-28T17:23:45.513Z,5.10
2018-03-28T17:26:13.796Z,4.60
2018-03-28T17:28:42.076Z,4.10
2018-03-28T17:31:10.365Z,5.30
2018-03-28T17:33:38.788Z,6.30
2018-03-28T17:36:06.322Z,5.60
2018-03-28T17:38:33.834Z,5.00
2018-03-28T17:41:01.437Z,4.47
2018-03-28T17:43:29.836Z,7.03
2018-03-28T17:45:57.360Z,6.93
2018-03-28T17:48:24.963Z,7.83
2018-03-28T17:50:52.484Z,6.62
2018-03-28T17:53:20.004Z,5.57
2018-03-28T17:55:47.535Z,7.57
2018-03-28T17:58:15.815Z,5.73
2018-03-28T18:00:44.083Z,6.77
2018-03-28T18:03:11.682Z,6.80
2018-03-28T18:05:39.211Z,7.47
2018-03-28T18:08:06.729Z,5.63
2018-03-28T18:10:34.237Z,6.80
2018-03-28T18:13:02.539Z,5.33
2018-03-28T18:15:30.841Z,22.97
2018-03-28T18:17:58.353Z,11.23
2018-03-28T18:20:25.910Z,11.87
2018-03-28T18:22:53.421Z,8.67
2018-03-28T18:25:20.936Z,14.47
2018-03-28T18:27:48.542Z,18.30
2018-03-28T18:30:16.096Z,13.93
2018-03-28T18:32:44.386Z,14.00
2018-03-28T18:35:11.948Z,10.97
2018-03-28T18:37:40.949Z,16.60
2018-03-28T18:40:08.475Z,17.03
2018-03-28T18:42:36.089Z,17.00
2018-03-28T18:45:03.618Z,19.97
2018-03-28T18:47:31.154Z,17.33
2018-03-28T18:49:58.665Z,14.03
2018-03-28T18:52:26.774Z,19.43
2018-03-28T18:54:54.286Z,14.17
2018-03-28T18:57:21.808Z,12.60
2018-03-28T18:59:49.326Z,16.40
2018-03-28T19:02:17.713Z,15.10
2018-03-28T19:04:46.091Z,12.90
2018-03-28T19:07:14.377Z,13.73
2018-03-28T19:09:41.897Z,10.37
2018-03-28T19:12:10.146Z,10.93
2018-03-28T19:14:37.681Z,10.93
2018-03-28T19:17:05.964Z,13.00
2018-03-28T19:19:34.325Z,10.77
2018-03-28T19:22:01.837Z,11.67
2018-03-28T19:24:29.345Z,11.43
2018-03-28T19:26:57.860Z,10.13
2018-03-28T19:29:26.133Z,8.77
2018-03-28T19:31:54.514Z,11.03
2018-03-28T19:34:22.791Z,12.87
2018-03-28T19:36:51.071Z,10.63
2018-03-28T19:39:19.364Z,9.57
2018-03-28T19:41:46.931Z,10.43
2018-03-28T19:44:14.436Z,12.73
2018-03-28T19:46:41.940Z,14.03
2018-03-28T19:49:10.262Z,11.87
2018-03-28T19:51:37.795Z,10.43
2018-03-28T19:54:06.079Z,11.73
2018-03-28T19:56:33.649Z,10.93
2018-03-28T19:59:01.168Z,11.73
2018-03-28T20:01:28.698Z,9.97
2018-03-28T20:03:56.239Z,9.70
2018-03-28T20:06:23.905Z,11.57
2018-03-28T20:08:51.469Z,9.87
2018-03-28T20:11:19.033Z,14.23
2018-03-28T20:13:47.403Z,12.50
2018-03-28T20:16:15.692Z,12.23
2018-03-28T20:18:43.964Z,9.97
2018-03-28T20:21:12.257Z,10.87
2018-03-28T20:23:39.766Z,9.73
2018-03-28T20:26:07.278Z,12.23
2018-03-28T20:28:34.797Z,9.93
2018-03-28T20:31:02.309Z,10.63
2018-03-28T20:33:29.888Z,9.73
2018-03-28T20:35:57.404Z,10.87
2018-03-28T20:38:24.944Z,8.57
2018-03-28T20:40:52.564Z,10.03
2018-03-28T20:43:20.835Z,10.40
2018-03-28T20:45:49.109Z,9.80
2018-03-28T20:48:17.379Z,11.70
2018-03-28T20:50:44.909Z,11.23
2018-03-28T20:53:12.420Z,10.37
2018-03-28T20:55:40.814Z,10.93
2018-03-28T20:58:09.205Z,11.20
2018-03-28T21:00:36.764Z,10.23
2018-03-28T21:03:05.042Z,10.80
2018-03-28T21:05:33.312Z,10.37
2018-03-28T21:08:03.395Z,9.83
2018-03-28T21:10:30.900Z,9.00
2018-03-28T21:12:59.190Z,8.60
2018-03-28T21:15:27.465Z,10.53
2018-03-28T21:17:55.028Z,8.57
2018-03-28T21:20:23.309Z,8.10
2018-03-28T21:22:51.595Z,7.60
2018-03-28T21:25:19.972Z,7.67
2018-03-28T21:27:48.253Z,9.90
2018-03-28T21:30:16.538Z,7.97
2018-03-28T21:32:44.046Z,8.30
2018-03-28T21:35:11.562Z,8.87
2018-03-28T21:37:39.136Z,8.23
2018-03-28T21:40:06.735Z,7.93
2018-03-28T21:42:34.213Z,5.77
2018-03-28T21:45:01.822Z,7.13
2018-03-28T21:47:30.200Z,7.40
2018-03-28T21:49:58.480Z,7.60
2018-03-28T21:52:26.768Z,6.67
2018-03-28T21:54:55.688Z,6.87
2018-03-28T21:57:23.280Z,7.57
2018-03-28T21:59:50.749Z,6.40
2018-03-28T22:02:18.254Z,6.63
2018-03-28T22:04:45.756Z,6.60
2018-03-28T22:07:13.269Z,6.30
2018-03-28T22:09:41.538Z,6.77
2018-03-28T22:12:09.053Z,6.40
2018-03-28T22:14:36.585Z,6.30
2018-03-28T22:17:04.142Z,6.40
2018-03-28T22:19:32.429Z,7.33
2018-03-28T22:22:00.819Z,5.50
2018-03-28T22:24:28.329Z,5.80
2018-03-28T22:26:55.842Z,5.13
2018-03-28T22:29:23.422Z,5.40
2018-03-28T22:31:50.959Z,5.97
2018-03-28T22:34:19.255Z,5.80
2018-03-28T22:36:46.809Z,6.30
2018-03-28T22:39:15.081Z,6.00
2018-03-28T22:41:43.347Z,6.57
2018-03-28T22:44:10.934Z,6.13
2018-03-28T22:46:39.222Z,5.80
2018-03-28T22:49:06.782Z,5.30
2018-03-28T22:51:35.056Z,5.63
2018-03-28T22:54:03.340Z,5.33
2018-03-28T22:56:31.621Z,5.47
2018-03-28T22:58:59.144Z,5.83
2018-03-28T23:01:26.653Z,5.40
2018-03-28T23:03:54.925Z,5.87
2018-03-28T23:06:23.195Z,5.50
2018-03-28T23:08:51.476Z,5.17
2018-03-28T23:11:19.749Z,5.73
2018-03-28T23:13:47.249Z,5.00
2018-03-28T23:16:14.798Z,4.57
2018-03-28T23:18:43.063Z,4.90
2018-03-28T23:21:11.356Z,4.93
2018-03-28T23:23:39.633Z,6.97
2018-03-28T23:26:08.553Z,4.70
2018-03-28T23:28:36.056Z,5.40
2018-03-28T23:31:03.658Z,4.63
2018-03-28T23:33:31.930Z,5.47
2018-03-28T23:36:00.203Z,5.07
2018-03-28T23:38:27.706Z,4.37
2018-03-28T23:40:55.249Z,4.80
2018-03-28T23:43:23.519Z,4.10
2018-03-28T23:45:51.789Z,4.73
2018-03-28T23:48:19.304Z,4.57
2018-03-28T23:50:46.820Z,4.43
2018-03-28T23:53:14.411Z,4.63
2018-03-28T23:55:41.969Z,4.33
2018-03-28T23:58:10.237Z,4.87
